sensor_id;sensor_type;location;lat;lon;timestamp;pressure;altitude;pressure_sealevel;temperature;humidity
70921;BME280;58572;48.110;19.838;2023-03-01T00:01:28;98774.47;;;4.57;60.20
70921;BME280;58572;48.110;19.838;2023-03-01T00:03:56;98671.56;;;4.55;59.06
70921;BME280;58572;48.110;19.838;2023-03-01T00:06:24;98771.91;;;3.94;61.87
70921;BME280;58572;48.110;19.838;2023-03-01T00:08:51;98780.91;;;4.06;62.15
70921;BME280;58572;48.110;19.838;2023-03-01T00:11:20;98770.84;;;4.26;60.34
70921;BME280;58572;48.110;19.838;2023-03-01T00:13:49;98770.59;;;4.53;59.91
70921;BME280;58572;48.110;19.838;2023-03-01T00:16:19;98767.75;;;3.98;63.64
70921;BME280;58572;48.110;19.838;2023-03-01T00:18:47;98606.72;;;3.58;61.51
70921;BME280;58572;48.110;19.838;2023-03-01T00:21:14;98767.19;;;4.14;61.77
70921;BME280;58572;48.110;19.838;2023-03-01T00:23:41;98686.16;;;3.54;62.89
70921;BME280;58572;48.110;19.838;2023-03-01T00:26:10;98768.13;;;3.45;58.69
70921;BME280;58572;48.110;19.838;2023-03-01T00:28:37;98755.22;;;4.10;58.74
70921;BME280;58572;48.110;19.838;2023-03-01T00:31:05;98755.72;;;3.75;60.81
70921;BME280;58572;48.110;19.838;2023-03-01T00:33:34;98760.19;;;3.57;62.77
70921;BME280;58572;48.110;19.838;2023-03-01T00:36:01;98707.34;;;3.69;61.58
70921;BME280;58572;48.110;19.838;2023-03-01T00:38:29;98756.16;;;3.41;62.99
70921;BME280;58572;48.110;19.838;2023-03-01T00:41:03;98638.72;;;2.27;65.15
70921;BME280;58572;48.110;19.838;2023-03-01T00:43:30;98736.97;;;2.86;62.23
70921;BME280;58572;48.110;19.838;2023-03-01T00:46:02;98739.91;;;2.78;65.21
70921;BME280;58572;48.110;19.838;2023-03-01T00:48:30;98735.66;;;2.44;66.57
70921;BME280;58572;48.110;19.838;2023-03-01T00:51:04;98729.09;;;2.33;66.34
70921;BME280;58572;48.110;19.838;2023-03-01T00:53:31;98734.69;;;2.25;67.42
70921;BME280;58572;48.110;19.838;2023-03-01T00:55:58;98740.44;;;2.35;65.67
70921;BME280;58572;48.110;19.838;2023-03-01T00:58:25;98729.31;;;1.99;66.91
70921;BME280;58572;48.110;19.838;2023-03-01T01:00:53;98730.69;;;2.54;66.19
70921;BME280;58572;48.110;19.838;2023-03-01T01:03:20;98724.75;;;2.32;65.77
70921;BME280;58572;48.110;19.838;2023-03-01T01:05:47;98727.13;;;2.67;64.46
70921;BME280;58572;48.110;19.838;2023-03-01T01:08:16;98726.84;;;2.04;66.85
70921;BME280;58572;48.110;19.838;2023-03-01T01:10:43;98728.09;;;1.95;67.35
70921;BME280;58572;48.110;19.838;2023-03-01T01:13:11;98737.56;;;1.64;68.45
70921;BME280;58572;48.110;19.838;2023-03-01T01:15:38;98728.72;;;1.70;68.55
70921;BME280;58572;48.110;19.838;2023-03-01T01:18:06;98726.44;;;1.80;68.15
70921;BME280;58572;48.110;19.838;2023-03-01T01:20:35;98728.50;;;1.91;67.18
70921;BME280;58572;48.110;19.838;2023-03-01T01:23:05;98725.59;;;1.53;68.21
70921;BME280;58572;48.110;19.838;2023-03-01T01:25:36;98722.72;;;1.42;68.97
70921;BME280;58572;48.110;19.838;2023-03-01T01:28:03;98722.47;;;1.23;69.83
70921;BME280;58572;48.110;19.838;2023-03-01T01:30:30;98719.81;;;1.50;69.25
70921;BME280;58572;48.110;19.838;2023-03-01T01:32:57;98715.91;;;1.59;68.52
70921;BME280;58572;48.110;19.838;2023-03-01T01:35:25;98716.94;;;1.84;67.52
70921;BME280;58572;48.110;19.838;2023-03-01T01:37:52;98692.00;;;1.64;68.64
70921;BME280;58572;48.110;19.838;2023-03-01T01:40:19;98713.25;;;1.79;69.19
70921;BME280;58572;48.110;19.838;2023-03-01T01:42:48;98658.81;;;1.65;68.87
70921;BME280;58572;48.110;19.838;2023-03-01T01:45:27;98712.84;;;2.08;69.14
70921;BME280;58572;48.110;19.838;2023-03-01T01:47:58;98697.97;;;2.19;69.29
70921;BME280;58572;48.110;19.838;2023-03-01T01:50:27;98655.03;;;2.06;68.15
70921;BME280;58572;48.110;19.838;2023-03-01T01:53:05;98697.38;;;2.75;66.42
70921;BME280;58572;48.110;19.838;2023-03-01T01:55:33;98704.34;;;2.82;67.04
70921;BME280;58572;48.110;19.838;2023-03-01T01:58:05;98697.66;;;3.36;65.18
70921;BME280;58572;48.110;19.838;2023-03-01T02:00:34;98612.13;;;2.19;67.85
70921;BME280;58572;48.110;19.838;2023-03-01T02:03:04;98694.28;;;3.16;63.99
70921;BME280;58572;48.110;19.838;2023-03-01T02:05:36;98686.03;;;2.66;67.70
70921;BME280;58572;48.110;19.838;2023-03-01T02:08:06;98688.84;;;2.33;69.29
70921;BME280;58572;48.110;19.838;2023-03-01T02:10:35;98690.50;;;2.34;69.28
70921;BME280;58572;48.110;19.838;2023-03-01T02:13:04;98608.88;;;1.90;69.08
70921;BME280;58572;48.110;19.838;2023-03-01T02:15:33;98683.81;;;2.56;68.24
70921;BME280;58572;48.110;19.838;2023-03-01T02:18:01;98680.94;;;2.51;67.93
70921;BME280;58572;48.110;19.838;2023-03-01T02:20:34;98684.63;;;2.57;67.07
70921;BME280;58572;48.110;19.838;2023-03-01T02:23:02;98688.88;;;3.23;65.09
70921;BME280;58572;48.110;19.838;2023-03-01T02:25:41;98686.34;;;3.84;61.08
70921;BME280;58572;48.110;19.838;2023-03-01T02:28:24;98682.34;;;4.11;60.27
70921;BME280;58572;48.110;19.838;2023-03-01T02:30:53;98679.22;;;3.71;61.00
70921;BME280;58572;48.110;19.838;2023-03-01T02:33:39;98687.00;;;2.85;64.74
70921;BME280;58572;48.110;19.838;2023-03-01T02:36:10;98694.69;;;3.19;63.41
70921;BME280;58572;48.110;19.838;2023-03-01T02:38:39;98687.53;;;3.63;60.58
70921;BME280;58572;48.110;19.838;2023-03-01T02:41:07;98691.88;;;3.01;63.73
70921;BME280;58572;48.110;19.838;2023-03-01T02:43:37;98672.00;;;1.47;68.59
70921;BME280;58572;48.110;19.838;2023-03-01T02:46:06;98699.63;;;1.93;67.22
70921;BME280;58572;48.110;19.838;2023-03-01T02:48:41;98703.59;;;3.45;62.88
70921;BME280;58572;48.110;19.838;2023-03-01T02:51:22;98705.34;;;3.33;62.41
70921;BME280;58572;48.110;19.838;2023-03-01T02:53:58;98701.63;;;3.34;61.38
70921;BME280;58572;48.110;19.838;2023-03-01T02:56:29;98703.47;;;2.95;63.53
70921;BME280;58572;48.110;19.838;2023-03-01T02:58:58;98703.53;;;2.24;66.62
70921;BME280;58572;48.110;19.838;2023-03-01T03:01:28;98702.22;;;2.46;65.11
70921;BME280;58572;48.110;19.838;2023-03-01T03:04:06;98659.47;;;2.51;64.30
70921;BME280;58572;48.110;19.838;2023-03-01T03:06:33;98682.75;;;3.02;63.06
70921;BME280;58572;48.110;19.838;2023-03-01T03:09:00;98676.06;;;3.74;60.53
70921;BME280;58572;48.110;19.838;2023-03-01T03:11:28;98642.38;;;3.72;60.02
70921;BME280;58572;48.110;19.838;2023-03-01T03:13:55;98661.25;;;3.65;60.55
70921;BME280;58572;48.110;19.838;2023-03-01T03:16:24;98672.34;;;3.50;61.82
70921;BME280;58572;48.110;19.838;2023-03-01T03:18:52;98659.00;;;3.62;60.37
70921;BME280;58572;48.110;19.838;2023-03-01T03:21:19;98675.41;;;3.54;61.02
70921;BME280;58572;48.110;19.838;2023-03-01T03:23:46;98663.94;;;3.65;60.40
70921;BME280;58572;48.110;19.838;2023-03-01T03:26:13;98669.19;;;4.03;59.62
70921;BME280;58572;48.110;19.838;2023-03-01T03:28:40;98482.69;;;3.11;58.94
70921;BME280;58572;48.110;19.838;2023-03-01T03:31:07;98666.97;;;3.75;60.06
70921;BME280;58572;48.110;19.838;2023-03-01T03:33:36;98669.66;;;3.75;60.42
70921;BME280;58572;48.110;19.838;2023-03-01T03:36:04;98659.19;;;3.67;61.38
70921;BME280;58572;48.110;19.838;2023-03-01T03:38:31;98661.72;;;4.05;59.10
70921;BME280;58572;48.110;19.838;2023-03-01T03:41:04;98666.84;;;3.89;59.69
70921;BME280;58572;48.110;19.838;2023-03-01T03:43:34;98664.19;;;4.07;59.32
70921;BME280;58572;48.110;19.838;2023-03-01T03:46:02;98664.53;;;4.17;59.15
70921;BME280;58572;48.110;19.838;2023-03-01T03:48:32;98676.22;;;4.04;59.04
70921;BME280;58572;48.110;19.838;2023-03-01T03:51:01;98664.38;;;3.87;59.31
70921;BME280;58572;48.110;19.838;2023-03-01T03:53:31;98667.97;;;3.56;61.15
70921;BME280;58572;48.110;19.838;2023-03-01T03:55:58;98632.56;;;3.59;59.48
70921;BME280;58572;48.110;19.838;2023-03-01T03:58:25;98663.78;;;3.85;60.02
70921;BME280;58572;48.110;19.838;2023-03-01T04:00:55;98664.25;;;4.00;59.89
70921;BME280;58572;48.110;19.838;2023-03-01T04:03:23;98632.78;;;4.01;58.53
70921;BME280;58572;48.110;19.838;2023-03-01T04:05:52;98576.00;;;3.72;58.30
70921;BME280;58572;48.110;19.838;2023-03-01T04:08:21;98668.19;;;4.23;58.54
70921;BME280;58572;48.110;19.838;2023-03-01T04:10:50;98667.66;;;4.32;58.54
70921;BME280;58572;48.110;19.838;2023-03-01T04:13:19;98665.88;;;4.44;58.36
70921;BME280;58572;48.110;19.838;2023-03-01T04:15:46;98669.38;;;4.27;58.31
70921;BME280;58572;48.110;19.838;2023-03-01T04:18:16;98601.72;;;4.05;58.50
70921;BME280;58572;48.110;19.838;2023-03-01T04:20:43;98664.97;;;4.51;57.80
70921;BME280;58572;48.110;19.838;2023-03-01T04:23:12;98607.31;;;3.85;58.22
70921;BME280;58572;48.110;19.838;2023-03-01T04:25:46;98667.38;;;4.22;58.23
70921;BME280;58572;48.110;19.838;2023-03-01T04:28:19;98439.47;;;2.70;58.71
70921;BME280;58572;48.110;19.838;2023-03-01T04:30:46;98671.94;;;4.22;58.90
70921;BME280;58572;48.110;19.838;2023-03-01T04:33:13;98658.97;;;3.12;62.62
70921;BME280;58572;48.110;19.838;2023-03-01T04:35:40;98657.63;;;2.90;64.54
70921;BME280;58572;48.110;19.838;2023-03-01T04:38:08;98676.59;;;2.95;66.61
70921;BME280;58572;48.110;19.838;2023-03-01T04:40:35;98625.09;;;3.05;63.97
70921;BME280;58572;48.110;19.838;2023-03-01T04:43:04;98666.28;;;4.05;63.87
70921;BME280;58572;48.110;19.838;2023-03-01T04:45:32;98664.72;;;3.47;66.71
70921;BME280;58572;48.110;19.838;2023-03-01T04:48:01;98455.25;;;1.90;67.80
70921;BME280;58572;48.110;19.838;2023-03-01T04:50:28;98664.94;;;3.14;67.55
70921;BME280;58572;48.110;19.838;2023-03-01T04:52:56;98661.88;;;3.04;67.08
70921;BME280;58572;48.110;19.838;2023-03-01T04:55:25;98668.50;;;3.40;64.33
70921;BME280;58572;48.110;19.838;2023-03-01T04:57:52;98657.13;;;3.88;64.13
70921;BME280;58572;48.110;19.838;2023-03-01T05:00:22;98586.59;;;3.67;61.97
70921;BME280;58572;48.110;19.838;2023-03-01T05:02:50;98656.44;;;3.49;63.55
70921;BME280;58572;48.110;19.838;2023-03-01T05:05:21;98656.47;;;3.92;63.35
70921;BME280;58572;48.110;19.838;2023-03-01T05:07:52;98664.88;;;2.89;66.39
70921;BME280;58572;48.110;19.838;2023-03-01T05:10:20;98668.91;;;3.05;67.20
70921;BME280;58572;48.110;19.838;2023-03-01T05:12:47;98575.09;;;2.79;64.99
70921;BME280;58572;48.110;19.838;2023-03-01T05:15:14;98659.16;;;3.17;66.17
70921;BME280;58572;48.110;19.838;2023-03-01T05:17:43;98653.44;;;4.07;62.24
70921;BME280;58572;48.110;19.838;2023-03-01T05:20:10;98564.34;;;2.79;64.76
70921;BME280;58572;48.110;19.838;2023-03-01T05:22:38;98656.81;;;3.77;60.54
70921;BME280;58572;48.110;19.838;2023-03-01T05:25:05;98658.75;;;3.70;60.52
70921;BME280;58572;48.110;19.838;2023-03-01T05:27:35;98646.84;;;3.60;61.83
70921;BME280;58572;48.110;19.838;2023-03-01T05:30:03;98552.69;;;2.92;62.65
70921;BME280;58572;48.110;19.838;2023-03-01T05:32:46;98661.56;;;3.26;64.92
70921;BME280;58572;48.110;19.838;2023-03-01T05:35:14;98564.41;;;3.29;61.74
70921;BME280;58572;48.110;19.838;2023-03-01T05:37:42;98656.88;;;4.14;62.62
70921;BME280;58572;48.110;19.838;2023-03-01T05:40:12;98659.38;;;3.91;63.50
70921;BME280;58572;48.110;19.838;2023-03-01T05:42:43;98664.00;;;3.83;63.13
70921;BME280;58572;48.110;19.838;2023-03-01T05:45:11;98663.28;;;4.13;63.10
70921;BME280;58572;48.110;19.838;2023-03-01T05:47:39;98671.56;;;4.36;62.45
70921;BME280;58572;48.110;19.838;2023-03-01T05:50:14;98583.03;;;3.92;60.02
70921;BME280;58572;48.110;19.838;2023-03-01T05:52:45;98676.28;;;4.41;60.90
70921;BME280;58572;48.110;19.838;2023-03-01T05:55:12;98665.63;;;4.82;58.45
70921;BME280;58572;48.110;19.838;2023-03-01T05:57:39;98616.13;;;4.65;58.17
70921;BME280;58572;48.110;19.838;2023-03-01T06:00:07;98670.56;;;4.86;58.27
70921;BME280;58572;48.110;19.838;2023-03-01T06:02:35;98683.66;;;4.27;60.48
70921;BME280;58572;48.110;19.838;2023-03-01T06:05:02;98646.41;;;4.61;58.90
70921;BME280;58572;48.110;19.838;2023-03-01T06:07:31;98679.41;;;4.20;63.47
70921;BME280;58572;48.110;19.838;2023-03-01T06:09:58;98675.88;;;4.74;60.45
70921;BME280;58572;48.110;19.838;2023-03-01T06:12:25;98680.69;;;4.54;58.86
70921;BME280;58572;48.110;19.838;2023-03-01T06:14:52;98681.25;;;4.74;57.78
70921;BME280;58572;48.110;19.838;2023-03-01T06:17:19;98680.59;;;5.08;57.33
70921;BME280;58572;48.110;19.838;2023-03-01T06:19:46;98679.81;;;5.20;56.44
70921;BME280;58572;48.110;19.838;2023-03-01T06:22:13;98615.91;;;4.12;58.34
70921;BME280;58572;48.110;19.838;2023-03-01T06:24:42;98619.66;;;4.11;58.14
70921;BME280;58572;48.110;19.838;2023-03-01T06:27:09;98658.06;;;4.73;57.00
70921;BME280;58572;48.110;19.838;2023-03-01T06:29:36;98680.78;;;4.95;56.72
70921;BME280;58572;48.110;19.838;2023-03-01T06:32:03;98682.47;;;4.78;57.34
70921;BME280;58572;48.110;19.838;2023-03-01T06:34:30;98612.22;;;3.45;56.86
70921;BME280;58572;48.110;19.838;2023-03-01T06:36:58;98693.47;;;3.97;56.51
70921;BME280;58572;48.110;19.838;2023-03-01T06:39:25;98686.38;;;4.27;57.00
70921;BME280;58572;48.110;19.838;2023-03-01T06:41:55;98692.06;;;4.37;56.85
70921;BME280;58572;48.110;19.838;2023-03-01T06:44:22;98684.34;;;5.07;55.77
70921;BME280;58572;48.110;19.838;2023-03-01T06:46:50;98676.63;;;5.41;53.90
70921;BME280;58572;48.110;19.838;2023-03-01T06:49:18;98681.88;;;4.21;56.75
70921;BME280;58572;48.110;19.838;2023-03-01T06:51:45;98670.03;;;4.77;55.66
70921;BME280;58572;48.110;19.838;2023-03-01T06:54:13;98668.50;;;4.99;55.38
70921;BME280;58572;48.110;19.838;2023-03-01T06:56:40;98663.38;;;4.79;54.52
70921;BME280;58572;48.110;19.838;2023-03-01T06:59:09;98677.53;;;4.38;56.47
70921;BME280;58572;48.110;19.838;2023-03-01T07:01:36;98672.16;;;5.35;54.57
70921;BME280;58572;48.110;19.838;2023-03-01T07:04:04;98576.78;;;4.64;53.59
70921;BME280;58572;48.110;19.838;2023-03-01T07:06:31;98668.13;;;5.67;53.24
70921;BME280;58572;48.110;19.838;2023-03-01T07:08:58;98669.25;;;5.36;51.66
70921;BME280;58572;48.110;19.838;2023-03-01T07:11:26;98665.22;;;4.97;54.44
70921;BME280;58572;48.110;19.838;2023-03-01T07:13:53;98666.56;;;5.18;54.36
70921;BME280;58572;48.110;19.838;2023-03-01T07:16:22;98672.63;;;5.32;53.67
70921;BME280;58572;48.110;19.838;2023-03-01T07:18:49;98667.13;;;5.92;52.43
70921;BME280;58572;48.110;19.838;2023-03-01T07:21:16;98667.66;;;5.70;52.23
70921;BME280;58572;48.110;19.838;2023-03-01T07:23:43;98675.63;;;5.65;52.02
70921;BME280;58572;48.110;19.838;2023-03-01T07:26:10;98670.81;;;5.67;52.35
70921;BME280;58572;48.110;19.838;2023-03-01T07:28:38;98668.69;;;5.46;52.32
70921;BME280;58572;48.110;19.838;2023-03-01T07:31:05;98666.34;;;5.61;52.38
70921;BME280;58572;48.110;19.838;2023-03-01T07:33:34;98670.13;;;5.84;52.43
70921;BME280;58572;48.110;19.838;2023-03-01T07:36:03;98664.66;;;6.37;50.25
70921;BME280;58572;48.110;19.838;2023-03-01T07:38:31;98664.50;;;6.67;49.87
70921;BME280;58572;48.110;19.838;2023-03-01T07:40:59;98660.09;;;6.14;50.95
70921;BME280;58572;48.110;19.838;2023-03-01T07:43:27;98655.47;;;6.50;49.73
70921;BME280;58572;48.110;19.838;2023-03-01T07:45:54;98666.38;;;5.85;50.59
70921;BME280;58572;48.110;19.838;2023-03-01T07:48:21;98663.19;;;5.53;51.98
70921;BME280;58572;48.110;19.838;2023-03-01T07:50:50;98600.06;;;5.30;51.81
70921;BME280;58572;48.110;19.838;2023-03-01T07:53:17;98647.75;;;5.95;51.74
70921;BME280;58572;48.110;19.838;2023-03-01T07:55:44;98645.94;;;6.59;49.58
70921;BME280;58572;48.110;19.838;2023-03-01T07:58:11;98641.97;;;6.90;48.13
70921;BME280;58572;48.110;19.838;2023-03-01T08:00:39;98648.78;;;7.21;48.61
70921;BME280;58572;48.110;19.838;2023-03-01T08:03:06;98639.50;;;6.88;49.15
70921;BME280;58572;48.110;19.838;2023-03-01T08:05:33;98638.16;;;6.74;49.69
70921;BME280;58572;48.110;19.838;2023-03-01T08:08:02;98630.16;;;6.79;48.70
70921;BME280;58572;48.110;19.838;2023-03-01T08:10:29;98633.53;;;6.86;49.52
70921;BME280;58572;48.110;19.838;2023-03-01T08:12:56;98629.81;;;6.35;49.31
70921;BME280;58572;48.110;19.838;2023-03-01T08:15:23;98563.63;;;5.98;49.50
70921;BME280;58572;48.110;19.838;2023-03-01T08:17:50;98596.66;;;6.52;49.04
70921;BME280;58572;48.110;19.838;2023-03-01T08:20:17;98629.25;;;7.19;48.48
70921;BME280;58572;48.110;19.838;2023-03-01T08:22:45;98625.06;;;7.40;47.82
70921;BME280;58572;48.110;19.838;2023-03-01T08:25:13;98628.03;;;6.41;46.74
70921;BME280;58572;48.110;19.838;2023-03-01T08:27:40;98613.50;;;7.44;48.42
70921;BME280;58572;48.110;19.838;2023-03-01T08:30:09;98618.94;;;8.16;45.42
70921;BME280;58572;48.110;19.838;2023-03-01T08:32:37;98626.34;;;6.92;44.06
70921;BME280;58572;48.110;19.838;2023-03-01T08:35:05;98580.44;;;6.52;46.62
70921;BME280;58572;48.110;19.838;2023-03-01T08:37:33;98615.22;;;7.50;48.22
70921;BME280;58572;48.110;19.838;2023-03-01T08:40:00;98619.50;;;7.46;47.50
70921;BME280;58572;48.110;19.838;2023-03-01T08:42:30;98618.91;;;7.78;48.80
70921;BME280;58572;48.110;19.838;2023-03-01T08:44:57;98616.97;;;7.28;47.78
70921;BME280;58572;48.110;19.838;2023-03-01T08:47:24;98611.03;;;7.59;44.55
70921;BME280;58572;48.110;19.838;2023-03-01T08:49:51;98606.53;;;7.82;47.36
70921;BME280;58572;48.110;19.838;2023-03-01T08:52:19;98607.94;;;7.67;46.89
70921;BME280;58572;48.110;19.838;2023-03-01T08:54:47;98579.00;;;7.51;45.23
70921;BME280;58572;48.110;19.838;2023-03-01T08:57:14;98611.63;;;7.61;47.68
70921;BME280;58572;48.110;19.838;2023-03-01T08:59:43;98601.63;;;8.34;46.92
70921;BME280;58572;48.110;19.838;2023-03-01T09:02:13;98603.19;;;8.13;45.88
70921;BME280;58572;48.110;19.838;2023-03-01T09:04:40;98607.81;;;7.96;46.70
70921;BME280;58572;48.110;19.838;2023-03-01T09:07:08;98594.28;;;8.78;44.93
70921;BME280;58572;48.110;19.838;2023-03-01T09:09:36;98603.34;;;7.51;46.08
70921;BME280;58572;48.110;19.838;2023-03-01T09:12:04;98603.63;;;8.27;44.14
70921;BME280;58572;48.110;19.838;2023-03-01T09:14:31;98592.97;;;9.08;45.42
70921;BME280;58572;48.110;19.838;2023-03-01T09:17:00;98584.59;;;10.15;44.45
70921;BME280;58572;48.110;19.838;2023-03-01T09:19:28;98593.38;;;9.85;43.69
70921;BME280;58572;48.110;19.838;2023-03-01T09:21:56;98587.63;;;10.66;42.15
70921;BME280;58572;48.110;19.838;2023-03-01T09:24:24;98515.63;;;11.19;41.50
70921;BME280;58572;48.110;19.838;2023-03-01T09:26:53;98598.28;;;9.51;43.30
70921;BME280;58572;48.110;19.838;2023-03-01T09:29:21;98598.78;;;10.70;42.53
70921;BME280;58572;48.110;19.838;2023-03-01T09:31:48;98582.97;;;10.14;43.00
70921;BME280;58572;48.110;19.838;2023-03-01T09:34:16;98594.63;;;10.52;42.03
70921;BME280;58572;48.110;19.838;2023-03-01T09:36:48;98550.50;;;10.35;42.49
70921;BME280;58572;48.110;19.838;2023-03-01T09:39:16;98590.44;;;9.92;42.37
70921;BME280;58572;48.110;19.838;2023-03-01T09:41:50;98593.00;;;10.56;40.90
70921;BME280;58572;48.110;19.838;2023-03-01T09:44:29;98591.47;;;10.85;40.24
70921;BME280;58572;48.110;19.838;2023-03-01T09:46:58;98583.16;;;13.33;37.28
70921;BME280;58572;48.110;19.838;2023-03-01T09:49:28;98593.53;;;11.81;38.74
70921;BME280;58572;48.110;19.838;2023-03-01T09:52:00;98589.16;;;11.55;38.54
70921;BME280;58572;48.110;19.838;2023-03-01T09:54:30;98584.00;;;10.50;35.46
70921;BME280;58572;48.110;19.838;2023-03-01T09:57:18;98583.34;;;9.86;39.32
70921;BME280;58572;48.110;19.838;2023-03-01T09:59:57;98511.94;;;12.85;38.01
70921;BME280;58572;48.110;19.838;2023-03-01T10:02:35;98575.69;;;10.82;35.43
70921;BME280;58572;48.110;19.838;2023-03-01T10:05:15;98571.81;;;12.56;39.23
70921;BME280;58572;48.110;19.838;2023-03-01T10:07:56;98570.66;;;12.72;39.09
70921;BME280;58572;48.110;19.838;2023-03-01T10:10:33;98543.94;;;12.69;38.28
70921;BME280;58572;48.110;19.838;2023-03-01T10:13:05;98554.34;;;12.62;37.55
70921;BME280;58572;48.110;19.838;2023-03-01T10:15:43;98544.31;;;13.75;36.73
70921;BME280;58572;48.110;19.838;2023-03-01T10:18:14;98487.00;;;12.97;37.21
70921;BME280;58572;48.110;19.838;2023-03-01T10:20:48;98467.41;;;11.81;37.74
70921;BME280;58572;48.110;19.838;2023-03-01T10:23:17;98495.19;;;12.97;37.57
70921;BME280;58572;48.110;19.838;2023-03-01T10:25:55;98543.88;;;12.79;37.67
70921;BME280;58572;48.110;19.838;2023-03-01T10:28:30;98534.91;;;11.99;34.77
70921;BME280;58572;48.110;19.838;2023-03-01T10:30:59;98516.72;;;13.03;38.65
70921;BME280;58572;48.110;19.838;2023-03-01T10:33:30;98522.75;;;13.39;32.18
70921;BME280;58572;48.110;19.838;2023-03-01T10:35:59;98533.44;;;10.44;38.23
70921;BME280;58572;48.110;19.838;2023-03-01T10:38:26;98527.31;;;11.00;35.67
70921;BME280;58572;48.110;19.838;2023-03-01T10:40:57;98514.47;;;13.50;34.43
70921;BME280;58572;48.110;19.838;2023-03-01T10:43:26;98504.25;;;14.37;31.20
70921;BME280;58572;48.110;19.838;2023-03-01T10:45:53;98507.31;;;15.67;34.49
70921;BME280;58572;48.110;19.838;2023-03-01T10:48:22;98506.88;;;14.71;34.73
70921;BME280;58572;48.110;19.838;2023-03-01T10:51:07;98431.28;;;16.27;33.53
70921;BME280;58572;48.110;19.838;2023-03-01T10:53:36;98491.88;;;14.21;36.23
70921;BME280;58572;48.110;19.838;2023-03-01T10:56:06;98483.31;;;15.26;35.53
70921;BME280;58572;48.110;19.838;2023-03-01T10:58:35;98495.19;;;13.94;37.51
70921;BME280;58572;48.110;19.838;2023-03-01T11:01:04;98474.59;;;17.83;32.77
70921;BME280;58572;48.110;19.838;2023-03-01T11:03:33;98472.75;;;17.70;29.42
70921;BME280;58572;48.110;19.838;2023-03-01T11:06:04;98476.97;;;15.63;33.55
70921;BME280;58572;48.110;19.838;2023-03-01T11:08:38;98474.44;;;15.81;35.45
70921;BME280;58572;48.110;19.838;2023-03-01T11:11:21;98459.72;;;14.55;34.04
70921;BME280;58572;48.110;19.838;2023-03-01T11:13:57;98465.25;;;14.50;35.62
70921;BME280;58572;48.110;19.838;2023-03-01T11:16:32;98438.50;;;16.23;35.48
70921;BME280;58572;48.110;19.838;2023-03-01T11:19:16;98455.09;;;16.82;29.73
70921;BME280;58572;48.110;19.838;2023-03-01T11:21:50;98466.84;;;13.61;35.53
70921;BME280;58572;48.110;19.838;2023-03-01T11:24:23;98457.03;;;15.25;35.58
70921;BME280;58572;48.110;19.838;2023-03-01T11:26:54;98447.69;;;15.26;32.93
70921;BME280;58572;48.110;19.838;2023-03-01T11:29:27;98454.38;;;12.82;36.05
70921;BME280;58572;48.110;19.838;2023-03-01T11:32:01;98446.13;;;15.53;34.67
70921;BME280;58572;48.110;19.838;2023-03-01T11:34:38;98437.47;;;16.33;36.77
70921;BME280;58572;48.110;19.838;2023-03-01T11:37:15;98439.94;;;15.93;35.57
70921;BME280;58572;48.110;19.838;2023-03-01T11:39:51;98434.13;;;17.31;34.02
70921;BME280;58572;48.110;19.838;2023-03-01T11:42:27;98438.00;;;15.48;34.12
70921;BME280;58572;48.110;19.838;2023-03-01T11:44:55;98414.78;;;14.61;31.89
70921;BME280;58572;48.110;19.838;2023-03-01T11:47:33;98430.09;;;15.46;36.90
70921;BME280;58572;48.110;19.838;2023-03-01T11:50:16;98413.50;;;16.25;32.95
70921;BME280;58572;48.110;19.838;2023-03-01T11:52:55;98417.16;;;16.07;33.34
70921;BME280;58572;48.110;19.838;2023-03-01T11:55:35;98415.50;;;14.86;35.47
70921;BME280;58572;48.110;19.838;2023-03-01T11:58:17;98409.78;;;15.47;33.32
70921;BME280;58572;48.110;19.838;2023-03-01T12:01:09;98414.84;;;14.14;34.80
70921;BME280;58572;48.110;19.838;2023-03-01T12:03:51;98398.31;;;16.41;36.09
70921;BME280;58572;48.110;19.838;2023-03-01T12:06:43;98391.69;;;16.92;34.39
70921;BME280;58572;48.110;19.838;2023-03-01T12:09:27;98384.88;;;17.12;35.03
70921;BME280;58572;48.110;19.838;2023-03-01T12:15:33;98375.28;;;17.32;35.14
70921;BME280;58572;48.110;19.838;2023-03-01T12:18:24;98376.09;;;14.68;34.51
70921;BME280;58572;48.110;19.838;2023-03-01T12:20:58;98382.94;;;13.37;36.61
70921;BME280;58572;48.110;19.838;2023-03-01T12:23:58;98372.31;;;14.45;38.29
70921;BME280;58572;48.110;19.838;2023-03-01T12:26:30;98381.47;;;14.17;38.09
70921;BME280;58572;48.110;19.838;2023-03-01T12:29:15;98372.06;;;13.32;37.58
70921;BME280;58572;48.110;19.838;2023-03-01T12:32:03;98243.97;;;15.50;37.31
70921;BME280;58572;48.110;19.838;2023-03-01T12:37:30;98363.03;;;15.99;33.89
70921;BME280;58572;48.110;19.838;2023-03-01T12:40:15;98360.13;;;14.56;36.08
70921;BME280;58572;48.110;19.838;2023-03-01T12:42:56;98361.78;;;15.50;35.33
70921;BME280;58572;48.110;19.838;2023-03-01T12:45:34;98349.25;;;15.76;35.03
70921;BME280;58572;48.110;19.838;2023-03-01T12:48:22;98344.56;;;16.40;36.90
70921;BME280;58572;48.110;19.838;2023-03-01T12:50:53;98292.22;;;16.37;35.01
70921;BME280;58572;48.110;19.838;2023-03-01T12:53:23;98351.53;;;16.10;35.51
70921;BME280;58572;48.110;19.838;2023-03-01T12:55:53;98343.56;;;16.36;35.96
70921;BME280;58572;48.110;19.838;2023-03-01T12:58:26;98334.97;;;16.65;35.86
70921;BME280;58572;48.110;19.838;2023-03-01T13:01:01;98328.16;;;16.85;36.00
70921;BME280;58572;48.110;19.838;2023-03-01T13:03:42;98320.38;;;17.80;33.30
70921;BME280;58572;48.110;19.838;2023-03-01T13:06:17;98341.44;;;15.83;37.25
70921;BME280;58572;48.110;19.838;2023-03-01T13:08:49;98306.75;;;16.59;36.51
70921;BME280;58572;48.110;19.838;2023-03-01T13:11:21;98327.50;;;17.50;36.17
70921;BME280;58572;48.110;19.838;2023-03-01T13:13:49;98340.06;;;15.40;34.10
70921;BME280;58572;48.110;19.838;2023-03-01T13:16:27;98340.31;;;15.71;36.87
70921;BME280;58572;48.110;19.838;2023-03-01T13:19:13;98359.06;;;12.61;40.77
70921;BME280;58572;48.110;19.838;2023-03-01T13:21:42;98320.31;;;15.70;37.17